Anabel, Missouri
Current Conditions -  °F | °C
As of 12:55 AM on Sunday 26 Oct 2014 (Local Time) from KIRK Reporting Station
Clear Clear  
Wind Chill: 51°   Ceiling: Unl
Heat Index: 51°   Visibility: 10mi
Dew Point: 41°   Wind: 6mph
Humidity: 68%   Direction: 60°ENE
Pressure: 30.04"   Gusts: NA
Location:  39.75°N, 92.34°W
Report Text: KIRK 260555Z AUTO 06005KT 10SM CLR 11/05 A3004 RMK AO2 SLP174 T01060050 10183 20100 402560083 58006
Loading
Personal Weather Stations






























Interactive Weather Map New forecast layout! Learn more

10-Day Weather Forecast

Advertisements
Track Severe Weather on mobile